Tuesday, April 24, 2018, 4:21 AM EDT
Back to Local

KILG, Wilmington New Castle Co

Location: New Castle, DE, United States Lat: 39.667
Local Time: 4:21 AM EDT ( 8:21 GMT) Lon: -75.6
Time Zone: US/Eastern Elev: 78 ft

Show me the last for .
Show Decoded

2018-04-24 03:51 METAR KILG 240751Z AUTO 11005KT 10SM CLR 08/02 A3038 RMK AO2 SLP285 T00830017 =
2018-04-24 02:51 METAR KILG 240651Z AUTO 08003KT 10SM CLR 08/01 A3037 RMK AO2 SLP284 T00780011 =
2018-04-24 01:51 METAR KILG 240551Z AUTO 13004KT 10SM CLR 09/01 A3038 RMK AO2 SLP288 T00890011
                 10128 20089 58010 =
2018-04-24 00:51 METAR KILG 240451Z AUTO 12006KT 10SM CLR 09/01 A3039 RMK AO2 SLP291 T00940006
                 401890044 =
2018-04-23 23:51 METAR KILG 240351Z AUTO 14005KT 10SM CLR 10/01 A3041 RMK AO2 SLP297 T01000011 =
2018-04-23 22:51 METAR KILG 240251Z AUTO 15005KT 10SM CLR 11/02 A3041 RMK AO2 SLP299 T01060022
                 50002 =
2018-04-23 21:51 METAR KILG 240151Z AUTO 14006KT 10SM CLR 11/02 A3042 RMK AO2 SLP302 T01060017 =
2018-04-23 20:51 METAR KILG 240051Z 15009KT 10SM CLR 11/01 A3042 RMK AO2 SLP300 T01110006 =
2018-04-23 19:51 METAR KILG 232351Z 16011KT 10SM CLR 13/00 A3041 RMK AO2 SLP297 T01280000 10189
                 20128 53003 =
2018-04-23 18:51 METAR KILG 232251Z 16014KT 10SM CLR 15/M01 A3039 RMK AO2 SLP291 T01501011 =
2018-04-23 17:51 METAR KILG 232151Z 16014KT 10SM CLR 16/M01 A3040 RMK AO2 SLP293 T01561006 =
2018-04-23 16:51 METAR KILG 232051Z 17015KT 10SM CLR 17/01 A3040 RMK AO2 SLP294 T01670006 58015 =
2018-04-23 15:51 METAR KILG 231951Z 16014G21KT 10SM CLR 17/00 A3041 RMK AO2 SLP299 T01670000 =
2018-04-23 14:51 METAR KILG 231851Z 16014KT 10SM CLR 18/M01 A3044 RMK AO2 SLP306 T01831006 =
2018-04-23 13:51 METAR KILG 231751Z 18012KT 10SM CLR 18/01 A3044 RMK AO2 SLP308 T01830006 10189
                 20094 56006 =
2018-04-23 12:51 METAR KILG 231651Z 17010G16KT 10SM CLR 19/02 A3045 RMK AO2 SLP310 T01890022 =
2018-04-23 11:51 METAR KILG 231551Z VRB03KT 10SM CLR 18/03 A3045 RMK AO2 SLP312 T01780033 =
2018-04-23 10:51 METAR KILG 231451Z 12005KT 10SM CLR 16/04 A3046 RMK AO2 SLP314 T01610039 50000 =
2018-04-23 09:51 METAR KILG 231351Z 15003KT 10SM CLR 14/03 A3047 RMK AO2 SLP317 T01440028 =
2018-04-23 08:51 METAR KILG 231251Z 09003KT 10SM CLR 12/05 A3047 RMK AO2 SLP317 T01220050 =
2018-04-23 07:51 METAR KILG 231151Z 16003KT 10SM CLR 09/06 A3046 RMK AO2 SLP315 T00890056 10089
                 20044 53012 =
2018-04-23 06:51 METAR KILG 231051Z 00000KT 10SM CLR 06/03 A3045 RMK AO2 SLP310 T00560033 =
2018-04-23 06:14 METAR KILG 231014Z 00000KT 10SM CLR 05/03 A3044 RMK AO2 T00500028 =
2018-04-23 05:51 METAR KILG 230951Z AUTO 02003KT 10SM CLR 05/02 A3044 RMK AO2 SLP306 T00500017 =
2018-04-23 04:51 METAR KILG 230851Z AUTO 04005KT 10SM CLR 06/01 A3043 RMK AO2 SLP303 T00560011
                 53005 =

Support USWX by starting your Amazon purchase here.